Time;durP1;ratioP1;P1;durP2;ratioP2;P2;SDS_P1;SDS_P2;PMS_P1;PMS_P2;Temp;Humidity;BMP_temperature;BMP_pressure;BME280_temperature;BME280_humidity;BME280_pressure;Samples;Min_cycle;Max_cycle;Signal;HPM_P1;HPM_P2
2021/07/25 00:00:00;;;;;;;11.70;9.23;;;22.00;85.60;;;;;;5040329;28;20191;-85
2021/07/25 00:02:28;;;;;;;10.73;9.73;;;22.00;84.50;;;;;;5059026;28;20916;-85
2021/07/25 00:04:54;;;;;;;10.52;9.18;;;21.90;85.00;;;;;;5059338;28;20310;-85
2021/07/25 00:07:19;;;;;;;10.70;9.50;;;21.90;85.20;;;;;;5057957;28;20861;-85
2021/07/25 00:09:45;;;;;;;10.70;9.80;;;21.80;85.60;;;;;;5040165;28;20702;-85
2021/07/25 00:12:11;;;;;;;12.55;11.43;;;21.90;85.40;;;;;;5055866;28;20657;-84
2021/07/25 00:14:38;;;;;;;10.65;9.57;;;21.90;84.90;;;;;;5054406;28;20652;-86
2021/07/25 00:17:03;;;;;;;10.32;9.35;;;21.90;84.40;;;;;;5052145;28;20209;-85
2021/07/25 00:19:30;;;;;;;10.57;9.10;;;21.70;85.00;;;;;;5020075;28;20188;-85
2021/07/25 00:21:56;;;;;;;9.18;8.48;;;21.80;84.90;;;;;;5054672;28;20184;-86
2021/07/25 00:24:29;;;;;;;10.10;9.30;;;21.70;85.30;;;;;;5054024;28;20901;-86
2021/07/25 00:26:56;;;;;;;11.57;10.30;;;22.00;84.70;;;;;;5054193;28;20204;-86
2021/07/25 00:29:22;;;;;;;9.75;8.95;;;22.00;83.60;;;;;;5036214;28;20235;-86
2021/07/25 00:31:48;;;;;;;10.05;9.27;;;21.90;84.10;;;;;;5053630;28;20172;-85
2021/07/25 00:34:14;;;;;;;10.70;9.73;;;22.00;83.90;;;;;;5051889;28;20651;-86
2021/07/25 00:36:40;;;;;;;11.10;9.70;;;22.10;82.90;;;;;;5054412;28;20285;-85
2021/07/25 00:39:10;;;;;;;10.43;9.43;;;22.10;83.00;;;;;;5054068;28;20564;-86
2021/07/25 00:41:36;;;;;;;10.23;9.13;;;22.00;83.80;;;;;;5037897;28;20157;-85
2021/07/25 00:44:02;;;;;;;10.88;10.00;;;22.00;83.60;;;;;;5056743;28;20173;-85
2021/07/25 00:46:28;;;;;;;9.63;8.77;;;22.10;83.60;;;;;;5053862;28;20220;-85
2021/07/25 00:48:55;;;;;;;10.25;9.45;;;22.30;82.40;;;;;;5054742;28;20826;-85
2021/07/25 00:51:23;;;;;;;10.48;9.48;;;22.30;82.10;;;;;;5065744;28;20190;-85
2021/07/25 00:53:49;;;;;;;11.88;10.30;;;22.30;82.10;;;;;;5074176;28;20176;-86
2021/07/25 00:56:14;;;;;;;10.88;9.80;;;22.20;82.20;;;;;;5072485;28;20362;-86
2021/07/25 00:58:42;;;;;;;10.93;9.93;;;22.00;83.60;;;;;;5041077;28;20644;-85
2021/07/25 01:01:12;;;;;;;10.27;9.40;;;21.90;84.10;;;;;;5034229;28;20211;-84
2021/07/25 01:04:05;;;;;;;12.20;9.13;;;21.90;85.50;;;;;;5033914;28;20221;-86
2021/07/25 01:06:45;;;;;;;12.93;10.85;;;21.90;84.30;;;;;;5033846;28;20216;-84
2021/07/25 01:09:31;;;;;;;11.05;10.05;;;21.80;85.10;;;;;;5034045;28;20210;-87
2021/07/25 01:11:59;;;;;;;10.07;9.18;;;21.70;85.70;;;;;;5034175;28;20570;-84
2021/07/25 01:14:38;;;;;;;9.80;9.00;;;21.60;86.40;;;;;;5034422;28;20188;-85
2021/07/25 01:17:22;;;;;;;11.20;10.20;;;21.60;86.10;;;;;;5033666;28;20193;-87
2021/07/25 01:19:49;;;;;;;10.73;9.63;;;21.70;86.40;;;;;;5034614;28;20180;-85
2021/07/25 01:22:15;;;;;;;10.52;9.52;;;21.50;87.40;;;;;;5033868;28;20184;-85
2021/07/25 01:24:41;;;;;;;10.30;9.40;;;21.30;87.90;;;;;;5033594;28;20208;-87
2021/07/25 01:27:09;;;;;;;9.65;8.52;;;21.30;88.00;;;;;;5034208;28;20204;-84
2021/07/25 01:29:36;;;;;;;9.93;8.98;;;21.40;87.90;;;;;;5039037;28;20192;-85
2021/07/25 01:32:02;;;;;;;9.32;8.43;;;21.40;87.30;;;;;;5053791;28;20679;-87
2021/07/25 01:34:28;;;;;;;9.48;8.57;;;21.30;87.40;;;;;;5054302;28;20192;-85
2021/07/25 01:36:57;;;;;;;9.00;8.30;;;21.40;87.40;;;;;;5053530;28;20184;-85
2021/07/25 01:39:26;;;;;;;9.82;8.85;;;21.60;86.40;;;;;;5054248;28;20285;-87
2021/07/25 01:41:52;;;;;;;9.20;8.40;;;21.70;86.10;;;;;;5052503;28;20672;-88
2021/07/25 01:44:18;;;;;;;10.30;9.40;;;21.50;86.80;;;;;;5054380;28;20198;-85
2021/07/25 01:46:43;;;;;;;10.10;9.30;;;21.50;87.70;;;;;;5051921;28;20204;-85
2021/07/25 01:49:09;;;;;;;9.80;9.00;;;21.30;88.00;;;;;;5053811;28;20189;-87
2021/07/25 01:51:34;;;;;;;10.15;9.25;;;21.30;88.10;;;;;;5053785;28;20187;-85
2021/07/25 01:54:00;;;;;;;10.23;9.10;;;21.10;88.50;;;;;;5053699;28;20192;-85
2021/07/25 01:56:26;;;;;;;10.18;9.40;;;21.00;89.20;;;;;;5053680;28;20214;-87
2021/07/25 01:58:51;;;;;;;10.30;9.15;;;21.00;89.10;;;;;;5056645;28;20188;-85
2021/07/25 02:01:17;;;;;;;10.00;9.00;;;21.10;88.40;;;;;;5055773;28;20662;-86
2021/07/25 02:03:43;;;;;;;10.98;9.95;;;21.30;88.10;;;;;;5037455;28;20194;-85
2021/07/25 02:06:08;;;;;;;10.50;9.70;;;21.10;89.50;;;;;;5037402;28;20287;-84
2021/07/25 02:08:34;;;;;;;10.57;9.55;;;21.00;89.00;;;;;;5042199;28;20191;-85
2021/07/25 02:11:00;;;;;;;10.50;9.70;;;21.00;89.20;;;;;;5045024;28;20179;-87
2021/07/25 02:13:25;;;;;;;10.60;9.73;;;21.10;88.50;;;;;;5047066;28;20681;-84
2021/07/25 02:15:51;;;;;;;11.00;10.00;;;21.10;89.00;;;;;;5054895;28;20719;-86
2021/07/25 02:18:18;;;;;;;11.30;10.23;;;21.00;89.40;;;;;;5054880;28;20210;-87
2021/07/25 02:20:44;;;;;;;11.20;10.18;;;21.10;89.50;;;;;;5054753;28;20260;-87
2021/07/25 02:23:10;;;;;;;10.07;9.27;;;21.20;88.80;;;;;;5039276;28;20260;-85
2021/07/25 02:25:38;;;;;;;10.55;9.38;;;21.40;87.70;;;;;;5056706;28;20300;-86
2021/07/25 02:28:05;;;;;;;10.77;9.85;;;21.60;87.40;;;;;;5056444;28;20206;-87
2021/07/25 02:30:30;;;;;;;11.15;10.02;;;21.70;86.70;;;;;;5056508;28;20192;-86
2021/07/25 02:32:56;;;;;;;10.30;9.32;;;21.80;86.10;;;;;;5043859;28;20273;-85
2021/07/25 02:35:22;;;;;;;11.45;10.45;;;21.80;86.30;;;;;;5038451;28;20212;-86
2021/07/25 02:37:47;;;;;;;11.98;10.77;;;21.60;86.20;;;;;;5039132;28;20208;-86
2021/07/25 02:40:13;;;;;;;11.90;10.90;;;21.60;87.40;;;;;;5036927;28;20774;-86
2021/07/25 02:42:38;;;;;;;10.77;9.77;;;21.60;87.60;;;;;;5037431;28;20189;-86
2021/07/25 02:45:05;;;;;;;10.68;9.68;;;21.60;87.20;;;;;;5020054;28;20205;-86
2021/07/25 02:47:30;;;;;;;11.57;10.43;;;21.50;87.10;;;;;;5037774;28;20200;-86
2021/07/25 02:49:56;;;;;;;12.32;11.18;;;21.50;87.20;;;;;;5039119;28;20187;-87
2021/07/25 02:52:21;;;;;;;10.32;9.43;;;21.40;87.40;;;;;;5059465;28;20187;-86
2021/07/25 02:54:47;;;;;;;11.82;10.77;;;21.30;88.50;;;;;;5057688;28;20224;-86
2021/07/25 02:57:13;;;;;;;12.75;11.57;;;21.30;88.30;;;;;;5038163;28;20216;-86
2021/07/25 02:59:38;;;;;;;12.50;11.38;;;21.30;88.50;;;;;;5057884;28;20184;-86
2021/07/25 03:02:04;;;;;;;14.35;11.15;;;21.30;88.60;;;;;;5057690;28;20185;-86
2021/07/25 03:04:29;;;;;;;12.40;11.20;;;21.30;88.40;;;;;;5039937;28;20187;-85
2021/07/25 03:06:55;;;;;;;13.27;11.20;;;21.30;88.60;;;;;;5056320;28;20270;-86
2021/07/25 03:09:21;;;;;;;12.60;11.38;;;21.40;88.30;;;;;;5039573;28;20178;-85
2021/07/25 03:11:47;;;;;;;12.57;11.38;;;21.30;89.00;;;;;;5058148;28;20194;-86
2021/07/25 03:14:13;;;;;;;11.60;10.35;;;21.30;88.20;;;;;;5057645;28;20200;-86
2021/07/25 03:16:39;;;;;;;12.15;11.05;;;21.30;88.70;;;;;;5058385;28;20561;-86
2021/07/25 03:19:05;;;;;;;14.82;12.20;;;21.20;89.30;;;;;;5057367;28;20187;-85
2021/07/25 03:21:31;;;;;;;12.48;10.77;;;21.20;89.00;;;;;;5053719;28;20249;-86
2021/07/25 03:23:57;;;;;;;13.45;11.45;;;21.10;89.10;;;;;;5037494;28;20182;-86
2021/07/25 03:26:22;;;;;;;12.38;11.07;;;21.00;89.70;;;;;;5036948;28;20546;-87
2021/07/25 03:28:48;;;;;;;12.60;11.48;;;21.00;90.40;;;;;;5036935;28;20194;-86
2021/07/25 03:31:14;;;;;;;11.80;10.60;;;21.00;90.60;;;;;;5036858;28;20647;-85
2021/07/25 03:33:39;;;;;;;11.68;10.50;;;20.90;90.80;;;;;;5036100;28;20714;-85
2021/07/25 03:36:05;;;;;;;12.05;10.88;;;20.80;91.30;;;;;;5036948;28;20175;-86
2021/07/25 03:38:31;;;;;;;15.93;11.32;;;20.80;91.80;;;;;;5038305;28;20186;-86
2021/07/25 03:41:02;;;;;;;12.23;11.00;;;20.80;91.50;;;;;;5036264;28;20191;-86
2021/07/25 03:43:29;;;;;;;14.00;11.10;;;20.80;91.20;;;;;;5036869;28;20190;-87
2021/07/25 03:45:55;;;;;;;11.65;10.70;;;20.90;91.70;;;;;;5037062;28;20572;-85
2021/07/25 03:48:21;;;;;;;11.20;10.20;;;20.90;91.50;;;;;;5036799;28;20196;-86
2021/07/25 03:50:46;;;;;;;10.75;9.75;;;21.10;90.70;;;;;;5043602;28;20193;-86
2021/07/25 03:53:12;;;;;;;10.95;9.98;;;21.20;89.90;;;;;;5038929;28;20176;-84
2021/07/25 03:55:43;;;;;;;11.90;10.30;;;21.30;89.50;;;;;;5045694;28;20225;-87
2021/07/25 03:58:09;;;;;;;10.90;9.80;;;21.30;89.10;;;;;;5043963;28;20203;-86
2021/07/25 04:00:34;;;;;;;11.68;10.60;;;21.10;89.60;;;;;;5035938;28;20265;-85
2021/07/25 04:03:00;;;;;;;11.68;10.48;;;21.20;89.60;;;;;;5037596;28;20188;-86
2021/07/25 04:05:25;;;;;;;11.07;10.07;;;21.10;89.40;;;;;;5037650;28;20213;-85
2021/07/25 04:07:51;;;;;;;10.82;9.95;;;21.10;90.20;;;;;;5037391;28;20624;-87
2021/07/25 04:10:17;;;;;;;10.68;9.70;;;21.10;90.10;;;;;;5036285;28;20251;-86
2021/07/25 04:12:42;;;;;;;10.63;9.48;;;21.10;89.80;;;;;;5034276;28;20197;-86
2021/07/25 04:15:09;;;;;;;10.88;9.90;;;21.10;89.60;;;;;;5056277;28;20838;-85
2021/07/25 04:17:35;;;;;;;10.45;9.38;;;21.10;89.60;;;;;;5056238;28;20690;-87
2021/07/25 04:20:02;;;;;;;10.40;9.38;;;21.00;89.60;;;;;;5055219;28;20201;-86
2021/07/25 04:22:35;;;;;;;10.18;9.18;;;21.00;90.40;;;;;;5055701;28;20238;-86
2021/07/25 04:25:01;;;;;;;12.05;9.52;;;21.00;90.10;;;;;;5038893;28;20606;-87
2021/07/25 04:27:27;;;;;;;12.32;10.20;;;21.00;90.10;;;;;;5054626;28;20191;-87
2021/07/25 04:29:54;;;;;;;10.70;9.63;;;20.90;90.60;;;;;;5055559;28;20205;-85
2021/07/25 04:32:20;;;;;;;11.35;10.23;;;20.90;91.10;;;;;;5056267;28;20603;-87
2021/07/25 04:34:46;;;;;;;11.27;9.07;;;20.80;91.30;;;;;;5055020;28;20188;-86
2021/07/25 04:37:21;;;;;;;11.18;10.18;;;20.70;92.30;;;;;;5055855;28;20202;-87
2021/07/25 04:39:48;;;;;;;10.75;9.75;;;20.60;92.40;;;;;;5056438;28;20655;-86
2021/07/25 04:42:16;;;;;;;10.88;9.75;;;20.60;92.80;;;;;;5054855;28;20593;-85
2021/07/25 04:44:48;;;;;;;11.13;10.00;;;20.60;93.00;;;;;;5054198;28;20184;-87
2021/07/25 04:47:19;;;;;;;10.90;9.80;;;20.70;92.10;;;;;;5038733;28;20200;-86
2021/07/25 04:50:04;;;;;;;9.95;8.93;;;20.90;91.40;;;;;;5035773;28;20164;-86
2021/07/25 04:52:39;;;;;;;10.70;9.38;;;20.90;91.60;;;;;;5035747;28;20179;-86
2021/07/25 04:55:10;;;;;;;10.45;9.43;;;20.80;91.10;;;;;;5035177;28;20180;-86
2021/07/25 04:57:43;;;;;;;10.20;9.20;;;20.80;91.10;;;;;;5045363;28;20207;-87
2021/07/25 05:00:14;;;;;;;10.60;9.65;;;20.90;91.20;;;;;;5043566;28;20191;-84
2021/07/25 05:02:43;;;;;;;10.32;9.43;;;20.90;91.00;;;;;;5055213;28;20195;-86
2021/07/25 05:05:10;;;;;;;11.05;10.05;;;20.80;91.40;;;;;;5056006;28;20626;-85
2021/07/25 05:07:40;;;;;;;11.98;10.85;;;20.70;91.70;;;;;;5037651;28;20218;-85
2021/07/25 05:10:07;;;;;;;11.20;9.63;;;20.80;92.10;;;;;;5055962;28;20181;-85
2021/07/25 05:12:39;;;;;;;10.15;9.18;;;20.80;91.80;;;;;;5055796;28;20183;-87
2021/07/25 05:15:15;;;;;;;11.93;10.63;;;20.80;91.80;;;;;;5055832;28;20190;-86
2021/07/25 05:17:43;;;;;;;10.50;9.50;;;20.70;92.00;;;;;;5037730;28;20215;-85
2021/07/25 05:20:16;;;;;;;11.32;9.93;;;20.70;92.50;;;;;;5035251;28;20187;-86
2021/07/25 05:22:47;;;;;;;10.52;9.63;;;20.80;91.70;;;;;;5034856;28;20184;-85
2021/07/25 05:25:16;;;;;;;11.77;10.63;;;20.80;91.50;;;;;;5035476;28;20241;-86
2021/07/25 05:27:48;;;;;;;11.32;9.98;;;20.90;91.00;;;;;;5017637;28;20203;-85
2021/07/25 05:30:16;;;;;;;11.25;9.88;;;20.90;91.60;;;;;;5035009;28;20630;-86
2021/07/25 05:32:42;;;;;;;9.93;9.00;;;20.90;91.50;;;;;;5025294;28;20201;-87
2021/07/25 05:35:08;;;;;;;11.07;9.95;;;21.00;91.30;;;;;;5059561;28;20180;-86
2021/07/25 05:37:34;;;;;;;10.75;9.52;;;21.00;91.10;;;;;;5041819;28;20205;-85
2021/07/25 05:40:00;;;;;;;11.32;10.32;;;21.00;91.10;;;;;;5058972;28;20237;-84
2021/07/25 05:42:26;;;;;;;11.32;10.13;;;20.70;92.50;;;;;;5059547;28;20197;-85
2021/07/25 05:44:51;;;;;;;9.95;8.85;;;20.80;92.20;;;;;;5059121;28;20226;-85
2021/07/25 05:47:17;;;;;;;11.65;10.45;;;20.70;93.10;;;;;;5059268;28;20814;-83
2021/07/25 05:49:43;;;;;;;12.43;10.02;;;20.80;92.00;;;;;;5051801;28;20648;-85
2021/07/25 05:52:08;;;;;;;10.80;9.75;;;20.90;92.20;;;;;;5060131;28;20176;-84
2021/07/25 05:54:34;;;;;;;11.50;10.50;;;20.90;92.00;;;;;;5066763;28;20177;-85
2021/07/25 05:57:00;;;;;;;11.60;10.60;;;20.90;92.50;;;;;;5068375;28;20676;-85
2021/07/25 05:59:25;;;;;;;11.02;9.48;;;20.80;93.80;;;;;;5050173;28;20183;-83
2021/07/25 06:01:52;;;;;;;11.23;9.50;;;20.80;94.40;;;;;;5049103;28;20217;-85
2021/07/25 06:04:17;;;;;;;11.65;10.32;;;20.70;94.60;;;;;;5050263;28;20315;-86
2021/07/25 06:06:43;;;;;;;12.50;10.93;;;20.80;93.60;;;;;;5063155;28;20826;-82
2021/07/25 06:09:09;;;;;;;10.95;9.93;;;20.80;92.70;;;;;;5071283;28;20278;-81
2021/07/25 06:11:35;;;;;;;11.23;9.52;;;20.80;93.40;;;;;;5072326;28;20180;-81
2021/07/25 06:14:02;;;;;;;12.73;10.82;;;20.80;93.90;;;;;;5072726;28;20237;-81
2021/07/25 06:16:29;;;;;;;10.63;9.73;;;20.90;93.60;;;;;;5054503;28;20364;-81
2021/07/25 06:18:54;;;;;;;10.73;9.63;;;20.90;93.80;;;;;;5055337;28;20181;-80
2021/07/25 06:21:20;;;;;;;9.93;9.13;;;21.00;92.70;;;;;;5071196;28;20185;-81
2021/07/25 06:23:48;;;;;;;10.07;9.07;;;21.20;91.10;;;;;;5065315;28;20199;-85
2021/07/25 06:26:14;;;;;;;11.10;10.15;;;21.20;91.20;;;;;;5057548;28;20276;-83
2021/07/25 06:28:40;;;;;;;9.82;9.02;;;21.20;90.60;;;;;;5051012;28;20185;-82
2021/07/25 06:31:05;;;;;;;10.82;9.73;;;21.10;91.00;;;;;;5026866;28;20195;-84
2021/07/25 06:33:31;;;;;;;11.30;10.18;;;21.10;91.00;;;;;;5044993;28;20265;-83
2021/07/25 06:35:57;;;;;;;10.38;9.57;;;21.00;91.40;;;;;;5042742;28;20180;-82
2021/07/25 06:38:23;;;;;;;10.50;9.57;;;21.10;92.00;;;;;;5043882;28;20219;-83
2021/07/25 06:40:54;;;;;;;10.70;9.63;;;21.10;89.90;;;;;;5056706;28;20272;-81
2021/07/25 06:43:22;;;;;;;11.55;10.43;;;21.10;91.00;;;;;;5053662;28;20210;-82
2021/07/25 06:45:48;;;;;;;10.13;9.13;;;21.30;89.70;;;;;;5054021;28;20212;-84
2021/07/25 06:48:22;;;;;;;10.00;8.98;;;21.40;89.50;;;;;;5054722;28;20211;-81
2021/07/25 06:50:49;;;;;;;9.88;8.85;;;21.50;90.70;;;;;;5041484;28;20243;-82
2021/07/25 06:53:16;;;;;;;8.23;7.53;;;21.60;88.30;;;;;;5050795;28;20176;-82
2021/07/25 06:55:42;;;;;;;8.82;8.05;;;21.80;88.30;;;;;;5058692;28;20179;-81
2021/07/25 06:58:08;;;;;;;9.00;8.15;;;21.90;88.10;;;;;;5068380;28;20208;-82
2021/07/25 07:00:36;;;;;;;8.52;7.80;;;21.90;86.00;;;;;;5061490;28;20291;-81
2021/07/25 07:03:03;;;;;;;9.77;8.63;;;21.90;85.80;;;;;;5052053;28;20195;-81
2021/07/25 07:05:30;;;;;;;10.80;8.45;;;22.00;87.00;;;;;;5051264;28;20216;-83
2021/07/25 07:07:58;;;;;;;8.80;7.97;;;22.10;86.00;;;;;;5052187;28;20292;-82
2021/07/25 07:10:29;;;;;;;8.73;7.90;;;22.20;85.70;;;;;;5044965;28;20173;-81
2021/07/25 07:12:56;;;;;;;8.52;7.72;;;22.40;85.00;;;;;;5032839;28;20265;-81
2021/07/25 07:15:23;;;;;;;8.43;7.70;;;22.50;83.50;;;;;;5064107;28;20187;-81
2021/07/25 07:17:50;;;;;;;8.35;7.45;;;22.50;84.50;;;;;;5063882;28;20200;-82
2021/07/25 07:20:16;;;;;;;7.72;6.90;;;22.40;84.00;;;;;;5063211;28;20237;-83
2021/07/25 07:22:42;;;;;;;8.13;7.38;;;22.50;83.40;;;;;;5062996;28;20275;-82
2021/07/25 07:25:08;;;;;;;8.48;7.57;;;22.60;84.30;;;;;;5052871;28;20232;-84
2021/07/25 07:27:35;;;;;;;10.27;7.93;;;22.60;84.40;;;;;;5052961;28;20215;-82
2021/07/25 07:30:01;;;;;;;9.80;7.28;;;22.80;84.60;;;;;;5050302;28;20192;-84
2021/07/25 07:32:27;;;;;;;7.28;6.57;;;22.80;83.90;;;;;;5048984;28;20248;-82
2021/07/25 07:34:53;;;;;;;7.72;6.70;;;23.10;81.80;;;;;;5050891;28;20217;-91
2021/07/25 07:37:18;;;;;;;7.80;7.10;;;23.10;79.70;;;;;;5039517;28;20228;-90
2021/07/25 07:39:45;;;;;;;7.55;6.85;;;23.10;77.10;;;;;;5049108;28;20242;-89
2021/07/25 07:42:12;;;;;;;9.10;7.15;;;23.10;79.40;;;;;;5050190;28;20195;-89
2021/07/25 07:44:38;;;;;;;8.70;7.35;;;23.20;79.30;;;;;;5058132;28;20191;-89
2021/07/25 07:47:04;;;;;;;7.25;6.55;;;23.30;78.70;;;;;;5058507;28;20572;-89
2021/07/25 07:49:30;;;;;;;7.78;6.97;;;23.50;76.90;;;;;;5057423;28;20234;-89
2021/07/25 07:51:56;;;;;;;8.77;7.35;;;23.60;78.50;;;;;;5057130;28;20648;-89
2021/07/25 07:54:22;;;;;;;8.23;7.50;;;23.40;77.60;;;;;;5048037;28;20191;-88
2021/07/25 07:56:48;;;;;;;8.45;7.50;;;23.30;79.30;;;;;;5017329;28;20223;-89
2021/07/25 07:59:13;;;;;;;8.98;8.07;;;23.40;79.30;;;;;;5053629;28;20556;-89
2021/07/25 08:01:39;;;;;;;7.03;6.32;;;23.40;79.00;;;;;;5045464;28;20248;-89
2021/07/25 08:04:05;;;;;;;7.38;6.68;;;23.40;77.80;;;;;;5052529;28;20185;-85
2021/07/25 08:06:31;;;;;;;7.28;6.57;;;23.50;77.70;;;;;;5040022;28;20723;-87
2021/07/25 08:08:56;;;;;;;7.50;6.90;;;23.60;78.50;;;;;;5039043;28;20795;-88
2021/07/25 08:11:22;;;;;;;7.65;6.80;;;23.60;76.40;;;;;;5020542;28;20177;-85
2021/07/25 08:13:48;;;;;;;9.43;6.93;;;23.70;76.30;;;;;;5020991;28;20193;-86
2021/07/25 08:16:13;;;;;;;8.18;7.38;;;23.70;77.90;;;;;;5021575;28;20645;-86
2021/07/25 08:18:39;;;;;;;7.63;6.88;;;23.80;77.60;;;;;;5052856;28;20227;-87
2021/07/25 08:21:05;;;;;;;8.57;6.70;;;23.50;76.90;;;;;;5056641;28;20193;-86
2021/07/25 08:23:32;;;;;;;7.03;6.32;;;23.40;77.40;;;;;;5044292;28;20234;-87
2021/07/25 08:25:58;;;;;;;8.32;6.97;;;23.60;74.60;;;;;;5048854;28;20242;-89
2021/07/25 08:28:25;;;;;;;7.80;6.18;;;23.80;75.20;;;;;;5049170;28;20204;-88
2021/07/25 08:30:50;;;;;;;6.68;6.00;;;24.10;72.80;;;;;;5040061;28;20203;-89
2021/07/25 08:33:16;;;;;;;7.57;6.68;;;24.30;71.40;;;;;;5040178;28;20185;-89
2021/07/25 08:35:42;;;;;;;7.03;6.38;;;24.50;71.10;;;;;;5026677;28;20185;-89
2021/07/25 08:38:08;;;;;;;8.10;6.38;;;24.50;71.20;;;;;;5029829;28;20863;-89
2021/07/25 08:40:34;;;;;;;6.32;5.63;;;24.50;70.60;;;;;;5047962;28;20180;-89
2021/07/25 08:43:08;;;;;;;6.63;6.07;;;24.60;70.10;;;;;;5027250;28;20637;-89
2021/07/25 08:45:39;;;;;;;7.53;6.32;;;24.50;69.60;;;;;;5049435;28;20577;-89
2021/07/25 08:48:11;;;;;;;6.50;5.90;;;24.30;69.00;;;;;;5046782;28;20212;-89
2021/07/25 08:50:41;;;;;;;6.35;5.75;;;24.40;71.40;;;;;;5050516;28;20795;-88
2021/07/25 08:53:16;;;;;;;6.07;5.50;;;24.50;69.00;;;;;;5050846;28;20182;-88
2021/07/25 08:55:43;;;;;;;6.47;5.80;;;24.80;67.50;;;;;;5048395;28;20172;-89
2021/07/25 08:58:12;;;;;;;5.72;5.32;;;24.90;66.30;;;;;;5037412;28;20215;-89
2021/07/25 09:00:38;;;;;;;6.68;6.05;;;25.00;65.80;;;;;;5030910;28;20183;-89
2021/07/25 09:03:09;;;;;;;7.22;5.78;;;24.80;66.30;;;;;;5044999;28;20184;-89
2021/07/25 09:05:36;;;;;;;6.00;5.60;;;25.00;65.50;;;;;;5045577;28;20285;-85
2021/07/25 09:08:03;;;;;;;6.32;5.20;;;25.10;67.50;;;;;;5053866;28;20296;-85
2021/07/25 09:10:32;;;;;;;6.82;6.03;;;24.80;65.10;;;;;;5055339;28;20189;-84
2021/07/25 09:12:57;;;;;;;6.30;5.80;;;25.00;65.30;;;;;;5050955;28;20180;-87
2021/07/25 09:15:26;;;;;;;6.15;5.55;;;25.10;65.10;;;;;;5057619;28;20184;-86
2021/07/25 09:17:53;;;;;;;5.15;4.75;;;25.30;64.60;;;;;;5038166;28;20656;-86
2021/07/25 09:20:41;;;;;;;6.00;5.50;;;25.50;62.70;;;;;;5039584;28;20187;-87
2021/07/25 09:23:15;;;;;;;5.97;5.40;;;25.80;63.30;;;;;;5056436;28;20188;-86
2021/07/25 09:25:44;;;;;;;6.10;5.50;;;26.10;62.40;;;;;;5056225;28;20207;-85
2021/07/25 09:28:13;;;;;;;5.97;5.38;;;26.10;61.80;;;;;;5057463;28;20222;-85
2021/07/25 09:30:39;;;;;;;6.70;5.88;;;25.90;62.60;;;;;;5055741;28;20537;-84
2021/07/25 09:33:34;;;;;;;5.93;5.50;;;26.00;61.80;;;;;;5054381;28;20187;-85
2021/07/25 09:36:06;;;;;;;6.15;5.60;;;25.90;62.70;;;;;;5034925;28;20256;-85
2021/07/25 09:38:32;;;;;;;5.68;5.28;;;25.90;60.90;;;;;;5052729;28;20201;-84
2021/07/25 09:40:58;;;;;;;6.22;5.50;;;25.80;60.40;;;;;;5050254;28;20180;-84
2021/07/25 09:43:24;;;;;;;5.45;4.93;;;25.90;59.80;;;;;;5047331;28;20184;-86
2021/07/25 09:45:53;;;;;;;5.45;4.90;;;26.10;60.60;;;;;;5051781;28;20224;-87
2021/07/25 09:48:20;;;;;;;5.90;5.40;;;26.00;60.40;;;;;;5030971;28;20200;-85
2021/07/25 09:50:46;;;;;;;6.03;5.50;;;25.90;61.40;;;;;;5031337;28;20169;-84
2021/07/25 09:53:15;;;;;;;5.55;5.15;;;26.00;61.00;;;;;;5048123;28;20641;-86
2021/07/25 09:55:41;;;;;;;6.25;5.72;;;26.20;61.10;;;;;;5048419;28;20200;-86
2021/07/25 09:58:07;;;;;;;6.43;4.70;;;25.90;60.20;;;;;;5049241;28;20212;-88
2021/07/25 10:00:44;;;;;;;5.32;4.93;;;26.10;58.30;;;;;;5045929;28;20723;-86
2021/07/25 10:03:21;;;;;;;5.32;4.93;;;26.30;58.10;;;;;;5047173;28;20187;-86
2021/07/25 10:05:47;;;;;;;5.43;5.00;;;26.70;57.70;;;;;;5053598;28;20540;-87
2021/07/25 10:08:17;;;;;;;5.57;5.07;;;27.00;57.60;;;;;;5045024;28;20232;-86
2021/07/25 10:10:45;;;;;;;6.60;6.00;;;26.90;56.80;;;;;;5049494;28;20183;-84
2021/07/25 10:13:23;;;;;;;5.68;5.18;;;26.50;58.40;;;;;;5040874;28;20173;-86
2021/07/25 10:15:57;;;;;;;5.68;5.10;;;26.50;59.10;;;;;;5037191;28;20205;-86
2021/07/25 10:18:24;;;;;;;5.45;4.72;;;26.70;56.60;;;;;;5023424;28;20215;-87
2021/07/25 10:20:58;;;;;;;5.72;5.22;;;26.50;56.90;;;;;;5048063;28;20631;-86
2021/07/25 10:23:41;;;;;;;6.15;5.65;;;26.60;56.70;;;;;;5054617;28;20549;-86
2021/07/25 10:26:07;;;;;;;6.05;5.55;;;26.70;57.40;;;;;;5054900;28;20544;-86
2021/07/25 10:28:36;;;;;;;5.60;5.10;;;26.70;58.00;;;;;;5046267;28;20180;-88
2021/07/25 10:31:03;;;;;;;6.32;5.63;;;27.10;57.30;;;;;;5057535;28;20188;-86
2021/07/25 10:33:30;;;;;;;5.32;4.93;;;27.40;55.50;;;;;;5050582;28;20169;-86
2021/07/25 10:36:01;;;;;;;6.13;5.30;;;27.50;55.00;;;;;;5051741;28;20255;-87
2021/07/25 10:38:27;;;;;;;5.90;5.32;;;27.70;54.70;;;;;;5048570;28;20203;-88
2021/07/25 10:40:54;;;;;;;8.70;5.43;;;28.10;54.00;;;;;;5050441;28;20206;-86
2021/07/25 10:43:25;;;;;;;5.95;5.50;;;28.20;52.80;;;;;;5041777;28;20177;-86
2021/07/25 10:46:23;;;;;;;5.47;4.95;;;28.40;52.60;;;;;;5040853;28;20843;-86
2021/07/25 10:49:04;;;;;;;5.68;5.18;;;28.00;52.90;;;;;;5061586;28;20184;-87
2021/07/25 10:51:34;;;;;;;5.35;4.85;;;28.10;53.10;;;;;;5064659;28;20203;-86
2021/07/25 10:54:21;;;;;;;6.57;5.15;;;28.50;50.90;;;;;;5047566;28;20188;-87
2021/07/25 10:57:03;;;;;;;7.47;5.13;;;28.50;51.20;;;;;;5043211;28;20333;-86
2021/07/25 10:59:48;;;;;;;5.55;5.15;;;29.00;49.50;;;;;;5057195;28;20184;-87
2021/07/25 11:02:33;;;;;;;5.43;4.93;;;29.30;47.40;;;;;;5056557;28;20172;-86
2021/07/25 11:04:59;;;;;;;5.35;4.85;;;29.40;46.90;;;;;;5056644;28;20215;-86
2021/07/25 11:07:25;;;;;;;5.68;5.07;;;29.10;48.60;;;;;;5058080;28;20552;-86
2021/07/25 11:10:05;;;;;;;5.45;5.05;;;29.00;49.00;;;;;;5057145;28;20185;-86
2021/07/25 11:12:52;;;;;;;5.40;5.00;;;28.80;49.20;;;;;;5055209;28;20177;-86
2021/07/25 11:18:05;;;;;;;5.95;5.45;;;28.70;51.00;;;;;;5057141;28;20196;-86
2021/07/25 11:20:35;;;;;;;5.97;5.47;;;28.70;50.20;;;;;;5037012;28;20244;-86
2021/07/25 11:23:04;;;;;;;5.63;5.22;;;28.60;50.60;;;;;;5036790;28;20177;-86
2021/07/25 11:25:35;;;;;;;5.93;5.53;;;29.10;49.50;;;;;;5035136;28;20292;-86
2021/07/25 11:28:05;;;;;;;5.65;5.13;;;29.50;48.00;;;;;;5035775;28;20201;-86
2021/07/25 11:30:52;;;;;;;6.30;5.75;;;30.10;49.40;;;;;;5038953;28;20197;-86
2021/07/25 11:33:40;;;;;;;5.93;5.50;;;30.30;46.00;;;;;;5037764;28;20185;-86
2021/07/25 11:36:10;;;;;;;5.82;5.32;;;30.30;45.80;;;;;;5033597;28;20181;-86
2021/07/25 11:38:40;;;;;;;6.22;5.55;;;30.40;47.00;;;;;;5035844;28;20204;-87
2021/07/25 11:41:07;;;;;;;5.63;4.97;;;30.90;45.50;;;;;;5035365;28;20181;-86
2021/07/25 11:43:53;;;;;;;5.22;4.75;;;31.20;42.70;;;;;;5040021;28;20263;-87
2021/07/25 11:46:38;;;;;;;5.68;5.32;;;31.10;42.20;;;;;;5046470;28;20277;-83
2021/07/25 11:49:20;;;;;;;5.80;5.30;;;30.80;41.60;;;;;;5045509;28;20171;-87
2021/07/25 11:52:02;;;;;;;5.85;5.40;;;30.80;42.90;;;;;;5041802;28;20603;-85
2021/07/25 11:54:37;;;;;;;5.18;4.80;;;30.30;45.80;;;;;;5050891;28;20254;-84
2021/07/25 11:57:10;;;;;;;6.15;5.30;;;30.30;43.80;;;;;;5051275;28;20216;-84
2021/07/25 11:59:47;;;;;;;6.00;5.50;;;30.90;42.80;;;;;;5034402;28;20166;-84
2021/07/25 12:02:12;;;;;;;5.47;4.97;;;31.50;42.10;;;;;;5044548;28;20181;-84
2021/07/25 12:04:43;;;;;;;6.03;5.53;;;31.40;42.30;;;;;;5047166;28;20691;-85
2021/07/25 12:07:16;;;;;;;5.68;5.28;;;31.80;40.90;;;;;;5053099;28;20200;-83
2021/07/25 12:09:44;;;;;;;6.32;5.00;;;32.10;40.10;;;;;;5053076;28;20222;-84
2021/07/25 12:12:18;;;;;;;5.40;5.00;;;32.30;39.70;;;;;;5052583;28;20544;-84
2021/07/25 12:14:57;;;;;;;5.95;5.45;;;31.90;42.20;;;;;;5023734;28;20176;-84
2021/07/25 12:17:38;;;;;;;5.13;4.72;;;31.20;42.60;;;;;;5034163;28;20692;-84
2021/07/25 12:20:13;;;;;;;6.22;5.82;;;31.40;41.60;;;;;;5033415;28;20178;-84
2021/07/25 12:22:48;;;;;;;6.50;5.97;;;32.00;41.60;;;;;;5033032;28;20183;-84
2021/07/25 12:25:14;;;;;;;6.03;5.60;;;32.70;38.30;;;;;;5033317;28;20224;-84
2021/07/25 12:27:39;;;;;;;6.32;5.82;;;33.20;38.30;;;;;;5033694;28;20247;-84
2021/07/25 12:30:10;;;;;;;5.97;5.38;;;33.30;38.40;;;;;;5017123;28;20220;-85
2021/07/25 12:32:35;;;;;;;6.28;5.78;;;33.40;37.60;;;;;;5015758;28;20177;-85
2021/07/25 12:35:11;;;;;;;6.13;5.72;;;33.10;38.70;;;;;;5034030;28;20181;-84
2021/07/25 12:37:57;;;;;;;6.45;5.88;;;32.90;37.60;;;;;;5034034;28;20196;-85
2021/07/25 12:40:25;;;;;;;6.53;6.00;;;32.20;40.70;;;;;;5035867;28;20181;-84
2021/07/25 12:43:02;;;;;;;5.72;5.32;;;32.60;38.60;;;;;;5035165;28;20219;-83
2021/07/25 12:45:34;;;;;;;5.80;5.40;;;33.00;37.90;;;;;;5034094;28;20189;-84
2021/07/25 12:48:25;;;;;;;6.45;5.95;;;32.90;37.20;;;;;;5044529;28;20223;-84
2021/07/25 12:50:53;;;;;;;6.50;5.70;;;33.10;37.80;;;;;;5050866;28;20206;-85